sensor_id;sensor_type;location;lat;lon;timestamp;temperature;humidity
8043;DHT22;4064;48.132;11.366;2023-12-28T00:00:46;2.80;99.90
8043;DHT22;4064;48.132;11.366;2023-12-28T00:03:13;2.70;99.90
8043;DHT22;4064;48.132;11.366;2023-12-28T00:05:39;2.70;99.90
8043;DHT22;4064;48.132;11.366;2023-12-28T00:08:07;2.70;99.90
8043;DHT22;4064;48.132;11.366;2023-12-28T00:10:33;2.70;99.90
8043;DHT22;4064;48.132;11.366;2023-12-28T00:12:58;2.70;99.90
8043;DHT22;4064;48.132;11.366;2023-12-28T00:15:24;2.80;99.90
8043;DHT22;4064;48.132;11.366;2023-12-28T00:17:50;2.80;99.90
8043;DHT22;4064;48.132;11.366;2023-12-28T00:20:15;2.70;99.90
8043;DHT22;4064;48.132;11.366;2023-12-28T00:22:41;2.90;99.90
8043;DHT22;4064;48.132;11.366;2023-12-28T00:25:07;3.10;99.90
8043;DHT22;4064;48.132;11.366;2023-12-28T00:27:33;3.10;99.90
8043;DHT22;4064;48.132;11.366;2023-12-28T00:30:04;3.10;99.90
8043;DHT22;4064;48.132;11.366;2023-12-28T00:32:31;3.10;99.90
8043;DHT22;4064;48.132;11.366;2023-12-28T00:34:56;3.00;99.90
8043;DHT22;4064;48.132;11.366;2023-12-28T00:37:22;2.90;99.90
8043;DHT22;4064;48.132;11.366;2023-12-28T00:39:48;2.90;99.90
8043;DHT22;4064;48.132;11.366;2023-12-28T00:42:15;2.80;99.90
8043;DHT22;4064;48.132;11.366;2023-12-28T00:44:41;2.80;99.90
8043;DHT22;4064;48.132;11.366;2023-12-28T00:47:07;2.80;99.90
8043;DHT22;4064;48.132;11.366;2023-12-28T00:49:32;2.60;99.90
8043;DHT22;4064;48.132;11.366;2023-12-28T00:52:01;2.70;99.90
8043;DHT22;4064;48.132;11.366;2023-12-28T00:54:26;2.70;99.90
8043;DHT22;4064;48.132;11.366;2023-12-28T00:56:52;2.60;99.90
8043;DHT22;4064;48.132;11.366;2023-12-28T00:59:18;2.70;99.90
8043;DHT22;4064;48.132;11.366;2023-12-28T01:01:43;2.80;99.90
8043;DHT22;4064;48.132;11.366;2023-12-28T01:04:10;2.90;99.90
8043;DHT22;4064;48.132;11.366;2023-12-28T01:06:37;2.80;99.90
8043;DHT22;4064;48.132;11.366;2023-12-28T01:09:03;2.70;99.90
8043;DHT22;4064;48.132;11.366;2023-12-28T01:11:29;2.50;99.90
8043;DHT22;4064;48.132;11.366;2023-12-28T01:13:55;2.40;99.90
8043;DHT22;4064;48.132;11.366;2023-12-28T01:16:20;2.10;99.90
8043;DHT22;4064;48.132;11.366;2023-12-28T01:18:46;2.20;99.90
8043;DHT22;4064;48.132;11.366;2023-12-28T01:21:12;2.30;99.90
8043;DHT22;4064;48.132;11.366;2023-12-28T01:23:37;2.10;99.90
8043;DHT22;4064;48.132;11.366;2023-12-28T01:26:03;2.20;99.90
8043;DHT22;4064;48.132;11.366;2023-12-28T01:28:29;2.50;99.90
8043;DHT22;4064;48.132;11.366;2023-12-28T01:30:55;2.50;99.90
8043;DHT22;4064;48.132;11.366;2023-12-28T01:33:21;2.50;99.90
8043;DHT22;4064;48.132;11.366;2023-12-28T01:35:46;2.40;99.90
8043;DHT22;4064;48.132;11.366;2023-12-28T01:38:12;2.20;99.90
8043;DHT22;4064;48.132;11.366;2023-12-28T01:40:38;2.30;99.90
8043;DHT22;4064;48.132;11.366;2023-12-28T01:43:09;2.40;99.90
8043;DHT22;4064;48.132;11.366;2023-12-28T01:45:34;2.40;99.90
8043;DHT22;4064;48.132;11.366;2023-12-28T01:48:00;2.40;99.90
8043;DHT22;4064;48.132;11.366;2023-12-28T01:50:26;2.60;99.90
8043;DHT22;4064;48.132;11.366;2023-12-28T01:52:55;2.50;99.90
8043;DHT22;4064;48.132;11.366;2023-12-28T01:55:21;2.60;99.90
8043;DHT22;4064;48.132;11.366;2023-12-28T01:57:48;3.00;99.90
8043;DHT22;4064;48.132;11.366;2023-12-28T02:00:14;3.30;99.90
8043;DHT22;4064;48.132;11.366;2023-12-28T02:02:40;3.50;99.90
8043;DHT22;4064;48.132;11.366;2023-12-28T02:05:07;3.80;99.90
8043;DHT22;4064;48.132;11.366;2023-12-28T02:07:36;4.00;99.90
8043;DHT22;4064;48.132;11.366;2023-12-28T02:10:02;4.30;99.90
8043;DHT22;4064;48.132;11.366;2023-12-28T02:12:28;4.50;99.90
8043;DHT22;4064;48.132;11.366;2023-12-28T02:14:54;4.60;99.90
8043;DHT22;4064;48.132;11.366;2023-12-28T02:17:33;4.60;99.90
8043;DHT22;4064;48.132;11.366;2023-12-28T02:20:02;4.60;99.90
8043;DHT22;4064;48.132;11.366;2023-12-28T02:22:31;4.60;99.90
8043;DHT22;4064;48.132;11.366;2023-12-28T02:25:10;4.40;99.90
8043;DHT22;4064;48.132;11.366;2023-12-28T02:27:44;4.10;99.90
8043;DHT22;4064;48.132;11.366;2023-12-28T02:30:12;4.10;99.90
8043;DHT22;4064;48.132;11.366;2023-12-28T02:35:33;4.60;99.90
8043;DHT22;4064;48.132;11.366;2023-12-28T02:38:03;4.80;99.40
8043;DHT22;4064;48.132;11.366;2023-12-28T02:40:34;5.00;98.70
8043;DHT22;4064;48.132;11.366;2023-12-28T02:43:01;5.20;98.40
8043;DHT22;4064;48.132;11.366;2023-12-28T02:45:27;5.10;98.50
8043;DHT22;4064;48.132;11.366;2023-12-28T02:47:53;4.90;99.00
8043;DHT22;4064;48.132;11.366;2023-12-28T02:50:19;4.90;98.70
8043;DHT22;4064;48.132;11.366;2023-12-28T02:52:46;5.00;98.20
8043;DHT22;4064;48.132;11.366;2023-12-28T02:55:11;5.00;98.10
8043;DHT22;4064;48.132;11.366;2023-12-28T02:57:38;5.00;97.90
8043;DHT22;4064;48.132;11.366;2023-12-28T03:00:07;5.00;98.00
8043;DHT22;4064;48.132;11.366;2023-12-28T03:02:37;4.80;98.50
8043;DHT22;4064;48.132;11.366;2023-12-28T03:05:07;4.90;98.30
8043;DHT22;4064;48.132;11.366;2023-12-28T03:07:33;4.90;98.20
8043;DHT22;4064;48.132;11.366;2023-12-28T03:10:00;4.80;98.00
8043;DHT22;4064;48.132;11.366;2023-12-28T03:12:26;4.90;97.80
8043;DHT22;4064;48.132;11.366;2023-12-28T03:14:52;4.70;98.60
8043;DHT22;4064;48.132;11.366;2023-12-28T03:17:17;4.80;98.10
8043;DHT22;4064;48.132;11.366;2023-12-28T03:19:43;4.80;98.50
8043;DHT22;4064;48.132;11.366;2023-12-28T03:22:09;4.70;98.40
8043;DHT22;4064;48.132;11.366;2023-12-28T03:24:37;4.50;98.40
8043;DHT22;4064;48.132;11.366;2023-12-28T03:27:03;4.50;98.50
8043;DHT22;4064;48.132;11.366;2023-12-28T03:29:29;4.50;99.00
8043;DHT22;4064;48.132;11.366;2023-12-28T03:31:54;4.60;98.40
8043;DHT22;4064;48.132;11.366;2023-12-28T03:34:20;4.40;99.60
8043;DHT22;4064;48.132;11.366;2023-12-28T03:36:47;4.30;98.60
8043;DHT22;4064;48.132;11.366;2023-12-28T03:39:13;4.30;98.40
8043;DHT22;4064;48.132;11.366;2023-12-28T03:41:38;4.40;98.40
8043;DHT22;4064;48.132;11.366;2023-12-28T03:44:04;4.70;98.10
8043;DHT22;4064;48.132;11.366;2023-12-28T03:46:30;4.50;98.50
8043;DHT22;4064;48.132;11.366;2023-12-28T03:48:55;4.50;98.20
8043;DHT22;4064;48.132;11.366;2023-12-28T03:51:21;4.30;99.40
8043;DHT22;4064;48.132;11.366;2023-12-28T03:53:47;4.70;97.30
8043;DHT22;4064;48.132;11.366;2023-12-28T03:56:27;4.80;96.30
8043;DHT22;4064;48.132;11.366;2023-12-28T03:58:54;5.00;96.60
8043;DHT22;4064;48.132;11.366;2023-12-28T04:01:21;5.10;96.00
8043;DHT22;4064;48.132;11.366;2023-12-28T04:03:47;5.20;95.70
8043;DHT22;4064;48.132;11.366;2023-12-28T04:06:14;5.30;95.50
8043;DHT22;4064;48.132;11.366;2023-12-28T04:08:41;5.30;95.60
8043;DHT22;4064;48.132;11.366;2023-12-28T04:11:07;5.30;95.10
8043;DHT22;4064;48.132;11.366;2023-12-28T04:13:33;5.40;94.90
8043;DHT22;4064;48.132;11.366;2023-12-28T04:15:59;5.30;95.40
8043;DHT22;4064;48.132;11.366;2023-12-28T04:18:24;5.20;95.10
8043;DHT22;4064;48.132;11.366;2023-12-28T04:20:50;5.20;95.30
8043;DHT22;4064;48.132;11.366;2023-12-28T04:23:16;5.20;95.70
8043;DHT22;4064;48.132;11.366;2023-12-28T04:25:42;5.20;95.10
8043;DHT22;4064;48.132;11.366;2023-12-28T04:28:07;5.20;95.40
8043;DHT22;4064;48.132;11.366;2023-12-28T04:30:33;5.10;95.40
8043;DHT22;4064;48.132;11.366;2023-12-28T04:33:00;5.10;95.10
8043;DHT22;4064;48.132;11.366;2023-12-28T04:35:26;5.20;94.80
8043;DHT22;4064;48.132;11.366;2023-12-28T04:37:52;5.30;94.70
8043;DHT22;4064;48.132;11.366;2023-12-28T04:40:17;5.20;94.50
8043;DHT22;4064;48.132;11.366;2023-12-28T04:42:43;5.20;94.70
8043;DHT22;4064;48.132;11.366;2023-12-28T04:45:09;5.20;94.60
8043;DHT22;4064;48.132;11.366;2023-12-28T04:47:37;5.20;94.60
8043;DHT22;4064;48.132;11.366;2023-12-28T04:50:04;5.00;94.90
8043;DHT22;4064;48.132;11.366;2023-12-28T04:52:30;4.90;95.00
8043;DHT22;4064;48.132;11.366;2023-12-28T04:54:56;4.90;94.90
8043;DHT22;4064;48.132;11.366;2023-12-28T04:57:22;4.90;95.00
8043;DHT22;4064;48.132;11.366;2023-12-28T04:59:50;5.00;94.50
8043;DHT22;4064;48.132;11.366;2023-12-28T05:02:16;5.00;94.70
8043;DHT22;4064;48.132;11.366;2023-12-28T05:04:44;5.00;94.50
8043;DHT22;4064;48.132;11.366;2023-12-28T05:07:10;5.10;94.40
8043;DHT22;4064;48.132;11.366;2023-12-28T05:09:36;5.20;94.00
8043;DHT22;4064;48.132;11.366;2023-12-28T05:12:01;5.10;94.10
8043;DHT22;4064;48.132;11.366;2023-12-28T05:14:27;5.20;93.60
8043;DHT22;4064;48.132;11.366;2023-12-28T05:16:53;5.30;93.40
8043;DHT22;4064;48.132;11.366;2023-12-28T05:19:19;5.30;93.30
8043;DHT22;4064;48.132;11.366;2023-12-28T05:21:44;5.30;93.50
8043;DHT22;4064;48.132;11.366;2023-12-28T05:24:11;5.20;93.70
8043;DHT22;4064;48.132;11.366;2023-12-28T05:26:37;5.10;93.90
8043;DHT22;4064;48.132;11.366;2023-12-28T05:29:03;5.00;94.50
8043;DHT22;4064;48.132;11.366;2023-12-28T05:31:28;4.80;94.60
8043;DHT22;4064;48.132;11.366;2023-12-28T05:33:54;4.80;94.50
8043;DHT22;4064;48.132;11.366;2023-12-28T05:36:20;4.70;95.40
8043;DHT22;4064;48.132;11.366;2023-12-28T05:38:45;4.70;95.40
8043;DHT22;4064;48.132;11.366;2023-12-28T05:41:11;4.70;95.20
8043;DHT22;4064;48.132;11.366;2023-12-28T05:43:40;4.80;94.10
8043;DHT22;4064;48.132;11.366;2023-12-28T05:46:06;5.00;93.70
8043;DHT22;4064;48.132;11.366;2023-12-28T05:48:31;5.00;93.80
8043;DHT22;4064;48.132;11.366;2023-12-28T05:50:58;5.00;93.80
8043;DHT22;4064;48.132;11.366;2023-12-28T05:53:24;5.10;93.70
8043;DHT22;4064;48.132;11.366;2023-12-28T05:55:50;5.20;93.50
8043;DHT22;4064;48.132;11.366;2023-12-28T05:58:16;5.20;93.10
8043;DHT22;4064;48.132;11.366;2023-12-28T06:00:43;5.30;93.00
8043;DHT22;4064;48.132;11.366;2023-12-28T06:03:08;5.30;93.40
8043;DHT22;4064;48.132;11.366;2023-12-28T06:05:34;5.20;93.10
8043;DHT22;4064;48.132;11.366;2023-12-28T06:08:00;5.20;93.00
8043;DHT22;4064;48.132;11.366;2023-12-28T06:10:25;5.20;93.30
8043;DHT22;4064;48.132;11.366;2023-12-28T06:12:51;5.10;93.10
8043;DHT22;4064;48.132;11.366;2023-12-28T06:15:16;5.10;93.30
8043;DHT22;4064;48.132;11.366;2023-12-28T06:17:42;5.00;93.40
8043;DHT22;4064;48.132;11.366;2023-12-28T06:20:10;4.80;95.30
8043;DHT22;4064;48.132;11.366;2023-12-28T06:22:37;4.50;95.30
8043;DHT22;4064;48.132;11.366;2023-12-28T06:25:03;4.30;96.00
8043;DHT22;4064;48.132;11.366;2023-12-28T06:27:29;4.20;96.20
8043;DHT22;4064;48.132;11.366;2023-12-28T06:29:55;4.20;94.90
8043;DHT22;4064;48.132;11.366;2023-12-28T06:32:20;4.70;94.10
8043;DHT22;4064;48.132;11.366;2023-12-28T06:34:46;4.70;94.20
8043;DHT22;4064;48.132;11.366;2023-12-28T06:37:14;4.80;93.90
8043;DHT22;4064;48.132;11.366;2023-12-28T06:39:40;5.00;93.80
8043;DHT22;4064;48.132;11.366;2023-12-28T06:42:06;4.90;94.20
8043;DHT22;4064;48.132;11.366;2023-12-28T06:44:32;4.80;94.90
8043;DHT22;4064;48.132;11.366;2023-12-28T06:46:57;4.60;94.70
8043;DHT22;4064;48.132;11.366;2023-12-28T06:49:24;4.90;94.00
8043;DHT22;4064;48.132;11.366;2023-12-28T06:51:49;5.20;93.60
8043;DHT22;4064;48.132;11.366;2023-12-28T06:54:15;5.40;93.20
8043;DHT22;4064;48.132;11.366;2023-12-28T06:56:41;5.50;93.20
8043;DHT22;4064;48.132;11.366;2023-12-28T06:59:07;5.60;92.90
8043;DHT22;4064;48.132;11.366;2023-12-28T07:01:39;5.70;92.80
8043;DHT22;4064;48.132;11.366;2023-12-28T07:04:05;5.60;93.00
8043;DHT22;4064;48.132;11.366;2023-12-28T07:06:31;5.50;93.40
8043;DHT22;4064;48.132;11.366;2023-12-28T07:08:56;5.20;94.60
8043;DHT22;4064;48.132;11.366;2023-12-28T07:11:22;5.00;95.10
8043;DHT22;4064;48.132;11.366;2023-12-28T07:13:48;5.00;94.30
8043;DHT22;4064;48.132;11.366;2023-12-28T07:16:14;5.00;95.30
8043;DHT22;4064;48.132;11.366;2023-12-28T07:18:41;5.00;93.80
8043;DHT22;4064;48.132;11.366;2023-12-28T07:21:07;5.10;93.90
8043;DHT22;4064;48.132;11.366;2023-12-28T07:23:35;5.30;93.40
8043;DHT22;4064;48.132;11.366;2023-12-28T07:26:00;5.40;93.40
8043;DHT22;4064;48.132;11.366;2023-12-28T07:28:26;5.50;93.10
8043;DHT22;4064;48.132;11.366;2023-12-28T07:30:52;5.60;93.60
8043;DHT22;4064;48.132;11.366;2023-12-28T07:33:18;5.60;93.40
8043;DHT22;4064;48.132;11.366;2023-12-28T07:35:43;5.60;93.10
8043;DHT22;4064;48.132;11.366;2023-12-28T07:38:09;5.70;93.00
8043;DHT22;4064;48.132;11.366;2023-12-28T07:40:35;5.90;92.60
8043;DHT22;4064;48.132;11.366;2023-12-28T07:43:00;6.20;92.30
8043;DHT22;4064;48.132;11.366;2023-12-28T07:45:26;6.30;92.20
8043;DHT22;4064;48.132;11.366;2023-12-28T07:47:52;6.20;92.80
8043;DHT22;4064;48.132;11.366;2023-12-28T07:50:18;6.20;92.60
8043;DHT22;4064;48.132;11.366;2023-12-28T07:52:45;6.20;92.50
8043;DHT22;4064;48.132;11.366;2023-12-28T07:55:11;6.40;92.10
8043;DHT22;4064;48.132;11.366;2023-12-28T07:57:36;6.50;92.20
8043;DHT22;4064;48.132;11.366;2023-12-28T08:00:02;6.70;91.80
8043;DHT22;4064;48.132;11.366;2023-12-28T08:02:29;6.90;91.10
8043;DHT22;4064;48.132;11.366;2023-12-28T08:04:54;7.20;91.00
8043;DHT22;4064;48.132;11.366;2023-12-28T08:07:20;7.20;91.10
8043;DHT22;4064;48.132;11.366;2023-12-28T08:09:47;7.30;91.30
8043;DHT22;4064;48.132;11.366;2023-12-28T08:12:13;7.50;90.50
8043;DHT22;4064;48.132;11.366;2023-12-28T08:14:38;7.60;90.60
8043;DHT22;4064;48.132;11.366;2023-12-28T08:17:04;7.90;89.60
8043;DHT22;4064;48.132;11.366;2023-12-28T08:19:30;8.00;90.10
8043;DHT22;4064;48.132;11.366;2023-12-28T08:21:56;8.10;89.60
8043;DHT22;4064;48.132;11.366;2023-12-28T08:24:22;8.20;89.90
8043;DHT22;4064;48.132;11.366;2023-12-28T08:26:47;8.40;88.10
8043;DHT22;4064;48.132;11.366;2023-12-28T08:29:13;8.60;88.10
8043;DHT22;4064;48.132;11.366;2023-12-28T08:31:39;8.80;87.50
8043;DHT22;4064;48.132;11.366;2023-12-28T08:34:04;8.90;86.20
8043;DHT22;4064;48.132;11.366;2023-12-28T08:36:30;9.30;85.80
8043;DHT22;4064;48.132;11.366;2023-12-28T08:38:55;9.50;84.20
8043;DHT22;4064;48.132;11.366;2023-12-28T08:41:22;9.60;84.10
8043;DHT22;4064;48.132;11.366;2023-12-28T08:43:52;9.80;82.80
8043;DHT22;4064;48.132;11.366;2023-12-28T08:46:20;9.90;83.00
8043;DHT22;4064;48.132;11.366;2023-12-28T08:48:46;10.00;80.30
8043;DHT22;4064;48.132;11.366;2023-12-28T08:51:12;10.00;80.70
8043;DHT22;4064;48.132;11.366;2023-12-28T08:53:40;10.00;79.80
8043;DHT22;4064;48.132;11.366;2023-12-28T08:56:20;10.10;78.50
8043;DHT22;4064;48.132;11.366;2023-12-28T08:58:46;10.30;77.80
8043;DHT22;4064;48.132;11.366;2023-12-28T09:01:16;10.50;77.80
8043;DHT22;4064;48.132;11.366;2023-12-28T09:03:43;10.40;78.40
8043;DHT22;4064;48.132;11.366;2023-12-28T09:06:08;10.40;78.50
8043;DHT22;4064;48.132;11.366;2023-12-28T09:08:34;10.50;76.60
8043;DHT22;4064;48.132;11.366;2023-12-28T09:11:00;10.60;75.90
8043;DHT22;4064;48.132;11.366;2023-12-28T09:13:25;10.70;75.20
8043;DHT22;4064;48.132;11.366;2023-12-28T09:15:51;10.80;74.80
8043;DHT22;4064;48.132;11.366;2023-12-28T09:18:17;11.00;72.70
8043;DHT22;4064;48.132;11.366;2023-12-28T09:20:42;11.10;72.40
8043;DHT22;4064;48.132;11.366;2023-12-28T09:23:08;11.20;72.20
8043;DHT22;4064;48.132;11.366;2023-12-28T09:25:36;11.20;72.10
8043;DHT22;4064;48.132;11.366;2023-12-28T09:28:04;11.20;70.90
8043;DHT22;4064;48.132;11.366;2023-12-28T09:30:30;11.30;71.20
8043;DHT22;4064;48.132;11.366;2023-12-28T09:32:55;11.30;69.50
8043;DHT22;4064;48.132;11.366;2023-12-28T09:35:21;11.40;70.00
8043;DHT22;4064;48.132;11.366;2023-12-28T09:37:46;11.50;68.60
8043;DHT22;4064;48.132;11.366;2023-12-28T09:40:12;11.50;67.90
8043;DHT22;4064;48.132;11.366;2023-12-28T09:45:24;11.50;68.20
8043;DHT22;4064;48.132;11.366;2023-12-28T09:47:50;11.70;67.40
8043;DHT22;4064;48.132;11.366;2023-12-28T09:50:18;11.70;67.90
8043;DHT22;4064;48.132;11.366;2023-12-28T09:52:44;11.90;67.40
8043;DHT22;4064;48.132;11.366;2023-12-28T09:55:10;12.00;67.10
8043;DHT22;4064;48.132;11.366;2023-12-28T09:57:37;12.20;66.90
8043;DHT22;4064;48.132;11.366;2023-12-28T10:00:03;12.10;65.60
8043;DHT22;4064;48.132;11.366;2023-12-28T10:02:32;12.10;66.20
8043;DHT22;4064;48.132;11.366;2023-12-28T10:04:59;12.10;65.00
8043;DHT22;4064;48.132;11.366;2023-12-28T10:07:24;12.10;65.60
8043;DHT22;4064;48.132;11.366;2023-12-28T10:09:51;12.10;66.60
8043;DHT22;4064;48.132;11.366;2023-12-28T10:12:17;12.30;65.00
8043;DHT22;4064;48.132;11.366;2023-12-28T10:14:43;12.30;65.00
8043;DHT22;4064;48.132;11.366;2023-12-28T10:17:09;12.30;65.10
8043;DHT22;4064;48.132;11.366;2023-12-28T10:19:36;12.40;64.80
8043;DHT22;4064;48.132;11.366;2023-12-28T10:22:02;12.40;65.50
8043;DHT22;4064;48.132;11.366;2023-12-28T10:24:27;12.40;64.90
8043;DHT22;4064;48.132;11.366;2023-12-28T10:26:53;12.40;63.30
8043;DHT22;4064;48.132;11.366;2023-12-28T10:29:19;12.50;63.50
8043;DHT22;4064;48.132;11.366;2023-12-28T10:31:44;12.40;62.70
8043;DHT22;4064;48.132;11.366;2023-12-28T10:34:14;12.40;63.50
8043;DHT22;4064;48.132;11.366;2023-12-28T10:36:40;12.30;61.90
8043;DHT22;4064;48.132;11.366;2023-12-28T10:39:09;12.20;61.60
8043;DHT22;4064;48.132;11.366;2023-12-28T10:41:37;12.20;61.70
8043;DHT22;4064;48.132;11.366;2023-12-28T10:44:05;12.20;61.20
8043;DHT22;4064;48.132;11.366;2023-12-28T10:46:32;12.20;60.70
8043;DHT22;4064;48.132;11.366;2023-12-28T10:49:11;12.10;60.60
8043;DHT22;4064;48.132;11.366;2023-12-28T10:51:41;12.20;60.60
8043;DHT22;4064;48.132;11.366;2023-12-28T10:57:01;12.10;60.30
8043;DHT22;4064;48.132;11.366;2023-12-28T10:59:57;12.10;60.30
8043;DHT22;4064;48.132;11.366;2023-12-28T11:02:28;12.20;61.00
8043;DHT22;4064;48.132;11.366;2023-12-28T11:04:59;12.20;60.30
8043;DHT22;4064;48.132;11.366;2023-12-28T11:07:26;12.20;61.20
8043;DHT22;4064;48.132;11.366;2023-12-28T11:10:00;12.20;60.20
8043;DHT22;4064;48.132;11.366;2023-12-28T11:12:27;12.10;60.70
8043;DHT22;4064;48.132;11.366;2023-12-28T11:14:53;12.10;62.10
8043;DHT22;4064;48.132;11.366;2023-12-28T11:17:20;12.10;61.40
8043;DHT22;4064;48.132;11.366;2023-12-28T11:19:48;12.10;61.10
8043;DHT22;4064;48.132;11.366;2023-12-28T11:22:15;12.10;60.70
8043;DHT22;4064;48.132;11.366;2023-12-28T11:24:41;12.10;60.80
8043;DHT22;4064;48.132;11.366;2023-12-28T11:27:06;12.10;61.80
8043;DHT22;4064;48.132;11.366;2023-12-28T11:29:32;12.20;62.70
8043;DHT22;4064;48.132;11.366;2023-12-28T11:31:59;12.20;61.90
8043;DHT22;4064;48.132;11.366;2023-12-28T11:34:29;12.10;62.90
8043;DHT22;4064;48.132;11.366;2023-12-28T11:36:56;12.10;61.70
8043;DHT22;4064;48.132;11.366;2023-12-28T11:39:35;12.10;62.40
8043;DHT22;4064;48.132;11.366;2023-12-28T11:42:06;12.10;61.50
8043;DHT22;4064;48.132;11.366;2023-12-28T11:44:40;12.20;60.70
8043;DHT22;4064;48.132;11.366;2023-12-28T11:47:17;12.20;60.60
8043;DHT22;4064;48.132;11.366;2023-12-28T11:49:46;12.20;61.30
8043;DHT22;4064;48.132;11.366;2023-12-28T11:52:23;12.20;61.90
8043;DHT22;4064;48.132;11.366;2023-12-28T11:54:49;12.30;61.00
8043;DHT22;4064;48.132;11.366;2023-12-28T11:57:17;12.40;62.10
8043;DHT22;4064;48.132;11.366;2023-12-28T11:59:43;12.40;62.80
8043;DHT22;4064;48.132;11.366;2023-12-28T12:02:09;12.30;61.30
8043;DHT22;4064;48.132;11.366;2023-12-28T12:04:36;12.30;62.20
8043;DHT22;4064;48.132;11.366;2023-12-28T12:07:02;12.30;61.50
8043;DHT22;4064;48.132;11.366;2023-12-28T12:09:31;12.20;61.40
8043;DHT22;4064;48.132;11.366;2023-12-28T12:12:03;12.10;62.10
8043;DHT22;4064;48.132;11.366;2023-12-28T12:14:29;12.10;62.70
8043;DHT22;4064;48.132;11.366;2023-12-28T12:16:56;12.00;61.90
8043;DHT22;4064;48.132;11.366;2023-12-28T12:19:23;11.90;62.20
8043;DHT22;4064;48.132;11.366;2023-12-28T12:21:49;11.80;62.60
8043;DHT22;4064;48.132;11.366;2023-12-28T12:24:17;11.80;62.40
8043;DHT22;4064;48.132;11.366;2023-12-28T12:26:43;11.80;63.60
8043;DHT22;4064;48.132;11.366;2023-12-28T12:29:08;11.70;63.50
8043;DHT22;4064;48.132;11.366;2023-12-28T12:31:35;11.60;65.00
8043;DHT22;4064;48.132;11.366;2023-12-28T12:34:02;11.60;65.20
8043;DHT22;4064;48.132;11.366;2023-12-28T12:36:28;11.40;65.40
8043;DHT22;4064;48.132;11.366;2023-12-28T12:38:54;11.40;65.40
8043;DHT22;4064;48.132;11.366;2023-12-28T12:41:19;11.40;65.50
8043;DHT22;4064;48.132;11.366;2023-12-28T12:43:45;11.40;67.50
8043;DHT22;4064;48.132;11.366;2023-12-28T12:46:11;11.40;66.70
8043;DHT22;4064;48.132;11.366;2023-12-28T12:48:37;11.40;67.10
8043;DHT22;4064;48.132;11.366;2023-12-28T12:51:03;11.30;68.30
8043;DHT22;4064;48.132;11.366;2023-12-28T12:53:36;11.30;68.00
8043;DHT22;4064;48.132;11.366;2023-12-28T12:56:05;11.30;68.80
8043;DHT22;4064;48.132;11.366;2023-12-28T12:58:31;11.20;69.60
8043;DHT22;4064;48.132;11.366;2023-12-28T13:00:57;11.20;68.90
8043;DHT22;4064;48.132;11.366;2023-12-28T13:03:27;11.10;69.80
8043;DHT22;4064;48.132;11.366;2023-12-28T13:05:54;11.10;69.20
8043;DHT22;4064;48.132;11.366;2023-12-28T13:08:21;11.10;69.70
8043;DHT22;4064;48.132;11.366;2023-12-28T13:10:47;11.10;69.60
8043;DHT22;4064;48.132;11.366;2023-12-28T13:13:15;11.10;69.60
8043;DHT22;4064;48.132;11.366;2023-12-28T13:15:41;11.10;70.00
8043;DHT22;4064;48.132;11.366;2023-12-28T13:18:07;11.10;70.40
8043;DHT22;4064;48.132;11.366;2023-12-28T13:20:32;11.00;70.40
8043;DHT22;4064;48.132;11.366;2023-12-28T13:22:58;11.00;71.10
8043;DHT22;4064;48.132;11.366;2023-12-28T13:25:23;10.90;71.30
8043;DHT22;4064;48.132;11.366;2023-12-28T13:27:49;10.90;71.20
8043;DHT22;4064;48.132;11.366;2023-12-28T13:30:15;10.90;72.30
8043;DHT22;4064;48.132;11.366;2023-12-28T13:32:40;10.90;71.80
8043;DHT22;4064;48.132;11.366;2023-12-28T13:35:06;10.90;72.00
8043;DHT22;4064;48.132;11.366;2023-12-28T13:37:32;10.90;71.90
8043;DHT22;4064;48.132;11.366;2023-12-28T13:39:57;10.90;72.10
8043;DHT22;4064;48.132;11.366;2023-12-28T13:42:23;10.80;72.30
8043;DHT22;4064;48.132;11.366;2023-12-28T13:44:48;10.80;72.30
8043;DHT22;4064;48.132;11.366;2023-12-28T13:47:14;10.80;72.90
8043;DHT22;4064;48.132;11.366;2023-12-28T13:49:39;10.70;73.00
8043;DHT22;4064;48.132;11.366;2023-12-28T13:52:05;10.70;72.90
8043;DHT22;4064;48.132;11.366;2023-12-28T13:54:31;10.70;72.30
8043;DHT22;4064;48.132;11.366;2023-12-28T13:56:56;10.60;72.80
8043;DHT22;4064;48.132;11.366;2023-12-28T13:59:24;10.60;72.60
8043;DHT22;4064;48.132;11.366;2023-12-28T14:01:50;10.60;72.70
8043;DHT22;4064;48.132;11.366;2023-12-28T14:04:15;10.60;72.90
8043;DHT22;4064;48.132;11.366;2023-12-28T14:06:41;10.60;73.50
8043;DHT22;4064;48.132;11.366;2023-12-28T14:09:06;10.60;74.10
8043;DHT22;4064;48.132;11.366;2023-12-28T14:11:33;10.60;73.60
8043;DHT22;4064;48.132;11.366;2023-12-28T14:13:59;10.60;73.80
8043;DHT22;4064;48.132;11.366;2023-12-28T14:16:26;10.60;74.10
8043;DHT22;4064;48.132;11.366;2023-12-28T14:18:52;10.60;73.60
8043;DHT22;4064;48.132;11.366;2023-12-28T14:21:18;10.60;73.10
8043;DHT22;4064;48.132;11.366;2023-12-28T14:23:44;10.60;73.40
8043;DHT22;4064;48.132;11.366;2023-12-28T14:26:14;10.60;73.50
8043;DHT22;4064;48.132;11.366;2023-12-28T14:28:44;10.60;73.30
8043;DHT22;4064;48.132;11.366;2023-12-28T14:31:10;10.60;73.60
8043;DHT22;4064;48.132;11.366;2023-12-28T14:33:37;10.60;73.80
8043;DHT22;4064;48.132;11.366;2023-12-28T14:36:06;10.50;73.80
8043;DHT22;4064;48.132;11.366;2023-12-28T14:38:34;10.50;74.20
8043;DHT22;4064;48.132;11.366;2023-12-28T14:41:00;10.50;73.60
8043;DHT22;4064;48.132;11.366;2023-12-28T14:43:25;10.60;73.40
8043;DHT22;4064;48.132;11.366;2023-12-28T14:45:51;10.50;73.30
8043;DHT22;4064;48.132;11.366;2023-12-28T14:48:18;10.50;73.20
8043;DHT22;4064;48.132;11.366;2023-12-28T14:50:44;10.50;73.20
8043;DHT22;4064;48.132;11.366;2023-12-28T14:53:10;10.50;73.10
8043;DHT22;4064;48.132;11.366;2023-12-28T14:55:35;10.50;73.70
8043;DHT22;4064;48.132;11.366;2023-12-28T14:58:01;10.40;73.80
8043;DHT22;4064;48.132;11.366;2023-12-28T15:00:27;10.40;73.40
8043;DHT22;4064;48.132;11.366;2023-12-28T15:02:53;10.40;73.40
8043;DHT22;4064;48.132;11.366;2023-12-28T15:05:18;10.30;73.40
8043;DHT22;4064;48.132;11.366;2023-12-28T15:07:44;10.30;73.70
8043;DHT22;4064;48.132;11.366;2023-12-28T15:10:10;10.30;73.70
8043;DHT22;4064;48.132;11.366;2023-12-28T15:12:36;10.20;73.60
8043;DHT22;4064;48.132;11.366;2023-12-28T15:15:02;10.10;73.30
8043;DHT22;4064;48.132;11.366;2023-12-28T15:17:28;10.10;73.40
8043;DHT22;4064;48.132;11.366;2023-12-28T15:19:54;10.10;72.90
8043;DHT22;4064;48.132;11.366;2023-12-28T15:22:20;10.00;73.00
8043;DHT22;4064;48.132;11.366;2023-12-28T15:24:46;10.00;73.60
8043;DHT22;4064;48.132;11.366;2023-12-28T15:27:11;9.90;75.30
8043;DHT22;4064;48.132;11.366;2023-12-28T15:29:38;9.80;76.20
8043;DHT22;4064;48.132;11.366;2023-12-28T15:32:04;9.90;75.00
8043;DHT22;4064;48.132;11.366;2023-12-28T15:34:29;9.90;74.40
8043;DHT22;4064;48.132;11.366;2023-12-28T15:36:55;9.90;74.20
8043;DHT22;4064;48.132;11.366;2023-12-28T15:39:21;9.90;73.80
8043;DHT22;4064;48.132;11.366;2023-12-28T15:41:46;9.90;73.70
8043;DHT22;4064;48.132;11.366;2023-12-28T15:44:12;9.80;74.00
8043;DHT22;4064;48.132;11.366;2023-12-28T15:46:39;9.80;73.70
8043;DHT22;4064;48.132;11.366;2023-12-28T15:49:05;9.80;73.50
8043;DHT22;4064;48.132;11.366;2023-12-28T15:51:31;9.70;74.20
8043;DHT22;4064;48.132;11.366;2023-12-28T15:53:56;9.60;74.40
8043;DHT22;4064;48.132;11.366;2023-12-28T15:56:22;9.60;75.10
8043;DHT22;4064;48.132;11.366;2023-12-28T15:58:47;9.60;74.50